createdAt,value
2019-05-15T00:01:08.817Z,61.00
2019-05-15T00:03:39.135Z,62.00
2019-05-15T00:06:08.779Z,61.60
2019-05-15T00:08:38.790Z,62.30
2019-05-15T00:11:08.410Z,62.80
2019-05-15T00:13:38.922Z,62.00
2019-05-15T00:16:08.560Z,62.10
2019-05-15T00:18:38.978Z,62.70
2019-05-15T00:21:09.269Z,63.20
2019-05-15T00:23:38.971Z,63.70
2019-05-15T00:26:09.248Z,63.40
2019-05-15T00:28:38.946Z,63.60
2019-05-15T00:31:09.101Z,63.00
2019-05-15T00:33:39.476Z,63.40
2019-05-15T00:36:08.832Z,63.80
2019-05-15T00:38:39.062Z,64.10
2019-05-15T00:41:09.365Z,65.00
2019-05-15T00:43:39.050Z,65.10
2019-05-15T00:46:09.149Z,65.00
2019-05-15T00:48:39.896Z,65.60
2019-05-15T00:51:09.268Z,65.50
2019-05-15T00:53:38.980Z,65.50
2019-05-15T00:56:08.820Z,65.80
2019-05-15T00:58:40.150Z,66.00
2019-05-15T01:01:08.895Z,66.70
2019-05-15T01:03:38.722Z,66.20
2019-05-15T01:06:08.305Z,66.80
2019-05-15T01:08:39.312Z,68.00
2019-05-15T01:11:09.041Z,68.10
2019-05-15T01:13:39.025Z,68.40
2019-05-15T01:16:09.161Z,67.70
2019-05-15T01:18:38.679Z,68.00
2019-05-15T01:21:08.485Z,67.60
2019-05-15T01:23:39.059Z,68.30
2019-05-15T01:26:08.458Z,68.00
2019-05-15T01:28:38.371Z,68.80
2019-05-15T01:31:08.485Z,68.20
2019-05-15T01:33:39.122Z,68.80
2019-05-15T01:36:08.595Z,69.30
2019-05-15T01:38:38.958Z,69.30
2019-05-15T01:41:09.782Z,69.60
2019-05-15T01:43:38.907Z,69.50
2019-05-15T01:46:08.596Z,69.80
2019-05-15T01:48:38.822Z,70.10
2019-05-15T01:51:09.269Z,69.40
2019-05-15T01:53:38.704Z,69.10
2019-05-15T01:56:08.404Z,70.40
2019-05-15T01:58:38.163Z,70.00
2019-05-15T02:01:08.108Z,70.40
2019-05-15T02:03:38.596Z,71.60
2019-05-15T02:06:08.335Z,72.20
2019-05-15T02:08:39.380Z,73.50
2019-05-15T02:11:09.111Z,74.20
2019-05-15T02:13:38.977Z,74.60
2019-05-15T02:16:08.525Z,75.60
2019-05-15T02:18:39.137Z,76.00
2019-05-15T02:21:10.416Z,76.50
2019-05-15T02:23:39.269Z,77.20
2019-05-15T02:26:08.273Z,77.20
2019-05-15T02:28:38.422Z,77.90
2019-05-15T02:31:10.327Z,79.90
2019-05-15T02:33:39.933Z,81.10
2019-05-15T02:36:09.914Z,81.60
2019-05-15T02:38:41.083Z,82.60
2019-05-15T02:41:10.257Z,84.20
2019-05-15T02:43:39.582Z,87.90
2019-05-15T02:46:10.131Z,87.30
2019-05-15T02:48:40.994Z,87.90
2019-05-15T02:51:10.284Z,89.00
2019-05-15T02:53:39.876Z,90.50
2019-05-15T02:56:09.604Z,91.00
2019-05-15T02:58:39.926Z,91.40
2019-05-15T03:01:09.685Z,92.50
2019-05-15T03:03:39.305Z,92.50
2019-05-15T03:06:09.976Z,94.40
2019-05-15T03:08:40.100Z,94.90
2019-05-15T03:11:09.986Z,95.50
2019-05-15T03:13:39.520Z,95.10
2019-05-15T03:16:10.070Z,95.80
2019-05-15T03:18:40.039Z,96.30
2019-05-15T03:21:09.628Z,96.50
2019-05-15T03:23:40.526Z,97.90
2019-05-15T03:26:09.723Z,97.90
2019-05-15T03:28:39.387Z,98.80
2019-05-15T03:31:35.155Z,97.60
2019-05-15T03:33:46.088Z,98.60
2019-05-15T03:36:13.227Z,96.60
2019-05-15T03:38:40.994Z,99.00
2019-05-15T03:41:10.494Z,95.90
2019-05-15T03:43:39.800Z,97.60
2019-05-15T03:46:09.228Z,97.40
2019-05-15T03:48:40.284Z,96.60
2019-05-15T03:51:09.476Z,95.90
2019-05-15T03:53:39.948Z,98.20
2019-05-15T03:56:09.824Z,99.00
2019-05-15T03:58:40.111Z,97.70
2019-05-15T04:01:27.766Z,98.60
2019-05-15T04:03:40.358Z,95.50
2019-05-15T04:06:10.158Z,96.50
2019-05-15T04:08:39.688Z,97.20
2019-05-15T04:11:09.348Z,96.10
2019-05-15T04:13:39.655Z,98.50
2019-05-15T04:16:10.340Z,95.40
2019-05-15T04:18:39.840Z,99.00
2019-05-15T04:21:09.567Z,96.20
2019-05-15T04:23:39.589Z,98.30
2019-05-15T04:26:10.978Z,96.90
2019-05-15T04:28:42.202Z,98.50
2019-05-15T04:31:11.462Z,98.80
2019-05-15T04:33:40.594Z,97.80
2019-05-15T04:36:10.119Z,96.40
2019-05-15T04:38:39.752Z,97.30
2019-05-15T04:41:09.877Z,99.90
2019-05-15T04:43:44.431Z,99.30
2019-05-15T04:46:10.237Z,99.90
2019-05-15T04:48:40.480Z,99.90
2019-05-15T04:51:10.874Z,98.40
2019-05-15T04:53:42.960Z,99.90
2019-05-15T04:56:13.025Z,99.90
2019-05-15T04:58:41.985Z,97.60
2019-05-15T05:01:11.052Z,98.60
2019-05-15T05:03:40.338Z,99.10
2019-05-15T05:06:10.178Z,99.10
2019-05-15T05:08:39.913Z,99.90
2019-05-15T05:11:09.927Z,99.40
2019-05-15T05:13:39.658Z,99.40
2019-05-15T05:16:09.717Z,98.50
2019-05-15T05:18:41.477Z,99.90
2019-05-15T05:21:09.767Z,99.90
2019-05-15T05:23:39.150Z,99.40
2019-05-15T05:26:10.968Z,99.10
2019-05-15T05:28:38.880Z,99.90
2019-05-15T05:31:08.538Z,98.70
2019-05-15T05:33:38.260Z,98.20
2019-05-15T05:36:07.939Z,98.00
2019-05-15T05:38:38.677Z,97.50
2019-05-15T05:41:08.337Z,96.90
2019-05-15T05:43:38.330Z,96.00
2019-05-15T05:46:09.300Z,95.60
2019-05-15T05:48:38.594Z,95.20
2019-05-15T05:51:09.541Z,92.70
2019-05-15T05:53:38.800Z,92.20
2019-05-15T05:56:08.870Z,91.70
2019-05-15T05:58:38.934Z,90.50
2019-05-15T06:01:09.416Z,90.90
2019-05-15T06:03:38.954Z,90.70
2019-05-15T06:06:09.668Z,89.40
2019-05-15T06:08:39.136Z,87.40
2019-05-15T06:11:09.794Z,84.90
2019-05-15T06:13:39.063Z,86.00
2019-05-15T06:16:08.606Z,84.50
2019-05-15T06:18:38.818Z,80.20
2019-05-15T06:21:09.039Z,79.40
2019-05-15T06:23:45.594Z,80.00
2019-05-15T06:26:09.647Z,77.20
2019-05-15T06:28:39.554Z,75.80
2019-05-15T06:31:09.006Z,75.00
2019-05-15T06:33:38.527Z,73.80
2019-05-15T06:36:08.991Z,74.80
2019-05-15T06:38:39.387Z,74.20
2019-05-15T06:41:08.893Z,73.40
2019-05-15T06:43:38.949Z,71.90
2019-05-15T06:46:09.214Z,71.50
2019-05-15T06:48:38.353Z,69.90
2019-05-15T06:51:08.945Z,66.40
2019-05-15T06:53:38.600Z,66.70
2019-05-15T06:56:08.089Z,63.80
2019-05-15T06:58:38.587Z,65.40
2019-05-15T07:01:08.730Z,61.60
2019-05-15T07:03:39.295Z,64.00
2019-05-15T07:06:09.422Z,59.60
2019-05-15T07:08:38.764Z,58.40
2019-05-15T07:11:08.900Z,56.40
2019-05-15T07:13:38.465Z,58.60
2019-05-15T07:16:08.203Z,59.30
2019-05-15T07:18:39.066Z,56.60
2019-05-15T07:21:10.153Z,53.20
2019-05-15T07:23:38.973Z,50.70
2019-05-15T07:26:09.411Z,53.50
2019-05-15T07:28:38.754Z,53.70
2019-05-15T07:31:11.459Z,50.80
2019-05-15T07:33:43.431Z,51.30
2019-05-15T07:36:09.426Z,48.10
2019-05-15T07:38:39.190Z,48.10
2019-05-15T07:41:10.191Z,45.90
2019-05-15T07:43:39.021Z,46.40
2019-05-15T07:46:08.498Z,45.60
2019-05-15T07:48:38.394Z,47.50
2019-05-15T07:51:11.654Z,46.40
2019-05-15T07:53:38.698Z,44.60
2019-05-15T07:56:11.943Z,46.10
2019-05-15T07:58:38.715Z,42.60
2019-05-15T08:01:09.913Z,44.50
2019-05-15T08:03:55.022Z,44.20
2019-05-15T08:06:09.369Z,42.40
2019-05-15T08:08:39.329Z,44.00
2019-05-15T08:11:20.344Z,42.70
2019-05-15T08:13:39.462Z,42.60
2019-05-15T08:16:08.799Z,43.80
2019-05-15T08:18:39.323Z,41.30
2019-05-15T08:21:08.966Z,41.80
2019-05-15T08:23:39.220Z,42.60
2019-05-15T08:26:08.748Z,41.80
2019-05-15T08:28:38.345Z,42.70
2019-05-15T08:31:10.208Z,40.50
2019-05-15T08:33:38.859Z,38.60
2019-05-15T08:36:08.546Z,40.00
2019-05-15T08:38:38.355Z,41.00
2019-05-15T08:41:11.245Z,39.90
2019-05-15T08:43:38.455Z,40.00
2019-05-15T08:46:08.329Z,39.40
2019-05-15T08:48:38.303Z,37.90
2019-05-15T08:51:08.747Z,38.70
2019-05-15T08:53:38.194Z,37.10
2019-05-15T08:56:08.429Z,36.00
2019-05-15T08:58:38.315Z,39.40
2019-05-15T09:01:09.844Z,37.00
2019-05-15T09:03:38.308Z,34.30
2019-05-15T09:06:09.067Z,35.10
2019-05-15T09:08:39.002Z,34.50
2019-05-15T09:11:09.047Z,34.80
2019-05-15T09:13:43.553Z,34.10
2019-05-15T09:16:09.348Z,34.40
2019-05-15T09:18:39.105Z,33.80
2019-05-15T09:21:08.978Z,32.90
2019-05-15T09:23:38.793Z,33.70
2019-05-15T09:26:09.270Z,33.60
2019-05-15T09:28:39.283Z,34.90
2019-05-15T09:31:08.712Z,32.50
2019-05-15T09:33:38.622Z,33.60
2019-05-15T09:36:09.018Z,33.30
2019-05-15T09:38:39.131Z,33.70
2019-05-15T09:41:09.114Z,33.80
2019-05-15T09:43:38.925Z,33.10
2019-05-15T09:46:10.392Z,33.20
2019-05-15T09:48:39.703Z,31.90
2019-05-15T09:51:09.332Z,33.30
2019-05-15T09:53:39.339Z,32.20
2019-05-15T09:56:08.796Z,31.40
2019-05-15T09:58:38.264Z,30.60
2019-05-15T10:01:08.421Z,30.80
2019-05-15T10:03:39.104Z,31.00
2019-05-15T10:06:08.694Z,32.10
2019-05-15T10:08:39.845Z,31.90
2019-05-15T10:11:09.159Z,30.80
2019-05-15T10:13:38.665Z,32.70
2019-05-15T10:16:08.321Z,31.30
2019-05-15T10:18:38.944Z,31.20
2019-05-15T10:21:09.144Z,33.10
2019-05-15T10:23:40.479Z,31.20
2019-05-15T10:26:13.558Z,33.10
2019-05-15T10:28:40.002Z,34.90
2019-05-15T10:31:09.549Z,34.00
2019-05-15T10:33:39.421Z,34.30
2019-05-15T10:36:08.684Z,33.70
2019-05-15T10:38:39.254Z,35.00
2019-05-15T10:41:14.006Z,35.00
2019-05-15T10:43:46.487Z,33.90
2019-05-15T10:46:13.264Z,32.70
2019-05-15T10:48:41.075Z,34.60
2019-05-15T10:51:10.592Z,33.00
2019-05-15T10:53:39.661Z,34.40
2019-05-15T10:56:09.085Z,35.30
2019-05-15T10:58:39.198Z,35.80
2019-05-15T11:01:11.257Z,34.60
2019-05-15T11:03:40.128Z,36.10
2019-05-15T11:06:09.408Z,35.90
2019-05-15T11:08:40.416Z,35.20
2019-05-15T11:11:09.459Z,36.00
2019-05-15T11:13:38.497Z,37.80
2019-05-15T11:16:07.555Z,35.00
2019-05-15T11:18:39.062Z,35.60
2019-05-15T11:21:08.243Z,36.50
2019-05-15T11:23:39.458Z,38.20
2019-05-15T11:26:09.067Z,38.90
2019-05-15T11:28:39.146Z,38.60
2019-05-15T11:31:10.324Z,39.40
2019-05-15T11:33:39.377Z,37.70
2019-05-15T11:36:08.373Z,37.80
2019-05-15T11:38:38.308Z,39.40
2019-05-15T11:41:08.725Z,38.10
2019-05-15T11:43:38.681Z,38.50
2019-05-15T11:46:10.030Z,40.30
2019-05-15T11:48:39.326Z,39.50
2019-05-15T11:51:09.491Z,39.00
2019-05-15T11:53:39.729Z,37.90
2019-05-15T11:56:09.650Z,38.80
2019-05-15T11:58:39.098Z,39.30
2019-05-15T12:01:08.722Z,40.40
2019-05-15T12:03:38.571Z,40.00
2019-05-15T12:06:18.650Z,40.60
2019-05-15T12:08:38.728Z,39.60
2019-05-15T12:11:11.872Z,39.60
2019-05-15T12:13:38.482Z,39.50
2019-05-15T12:16:07.435Z,39.40
2019-05-15T12:18:38.846Z,39.40
2019-05-15T12:21:07.154Z,39.20
2019-05-15T12:23:38.093Z,39.90
2019-05-15T12:26:09.154Z,39.00
2019-05-15T12:28:40.612Z,38.40
2019-05-15T12:31:08.978Z,39.20
2019-05-15T12:33:38.640Z,39.40
2019-05-15T12:36:10.809Z,39.80
2019-05-15T12:38:39.809Z,39.10
2019-05-15T13:01:18.213Z,40.90
2019-05-15T13:03:46.076Z,39.60
2019-05-15T13:06:15.084Z,39.40
2019-05-15T13:08:43.973Z,41.10
2019-05-15T13:11:15.253Z,40.80
2019-05-15T13:13:44.001Z,41.40
2019-05-15T13:16:13.113Z,42.70
2019-05-15T13:18:42.111Z,41.50
2019-05-15T13:21:11.107Z,41.60
2019-05-15T13:23:40.070Z,39.90
2019-05-15T13:26:23.031Z,40.40
2019-05-15T13:28:39.827Z,41.00
2019-05-15T13:31:09.268Z,41.60
2019-05-15T13:33:38.714Z,40.20
2019-05-15T13:36:08.966Z,39.60
2019-05-15T13:38:38.299Z,40.60
2019-05-15T13:41:09.377Z,40.20
2019-05-15T13:43:38.614Z,40.70
2019-05-15T13:46:08.836Z,41.20
2019-05-15T13:48:38.735Z,40.00
2019-05-15T13:51:07.885Z,39.90
2019-05-15T13:53:38.522Z,39.50
2019-05-15T13:56:07.849Z,40.30
2019-05-15T13:58:38.851Z,41.20
2019-05-15T14:01:09.423Z,41.60
2019-05-15T14:03:39.096Z,41.90
2019-05-15T14:06:09.388Z,41.50
2019-05-15T14:08:39.078Z,40.60
2019-05-15T14:11:08.816Z,41.00
2019-05-15T14:13:39.173Z,40.80
2019-05-15T14:16:09.741Z,40.50
2019-05-15T14:18:39.128Z,40.30
2019-05-15T14:21:08.954Z,40.60
2019-05-15T14:23:38.514Z,40.20
2019-05-15T14:26:17.909Z,40.60
2019-05-15T14:28:38.909Z,41.20
2019-05-15T14:31:09.727Z,40.70
2019-05-15T14:33:39.044Z,40.00
2019-05-15T14:36:08.560Z,40.10
2019-05-15T14:38:37.982Z,40.30
2019-05-15T14:41:08.807Z,40.40
2019-05-15T14:43:38.440Z,41.30
2019-05-15T14:46:08.145Z,42.30
2019-05-15T14:48:38.615Z,41.00
2019-05-15T14:51:08.683Z,40.20
2019-05-15T14:53:38.546Z,42.00
2019-05-15T14:56:08.502Z,40.60
2019-05-15T14:58:38.727Z,40.90
2019-05-15T15:01:12.396Z,40.30
2019-05-15T15:03:39.238Z,41.10
2019-05-15T15:06:08.770Z,40.20
2019-05-15T15:08:37.969Z,40.00
2019-05-15T15:11:08.793Z,40.50
2019-05-15T15:13:38.179Z,40.80
2019-05-15T15:16:08.471Z,39.80
2019-05-15T15:18:38.636Z,40.60
2019-05-15T15:21:08.618Z,41.30
2019-05-15T15:23:38.758Z,41.20
2019-05-15T15:26:08.523Z,41.00
2019-05-15T15:28:40.013Z,41.80
2019-05-15T15:31:08.456Z,41.00
2019-05-15T15:33:39.164Z,40.60
2019-05-15T15:36:08.835Z,41.90
2019-05-15T15:38:43.424Z,42.80
2019-05-15T15:41:08.758Z,40.80
2019-05-15T15:43:38.717Z,40.20
2019-05-15T15:46:08.633Z,41.60
2019-05-15T15:48:39.053Z,41.50
2019-05-15T15:51:09.140Z,41.60
2019-05-15T15:53:39.091Z,42.00
2019-05-15T15:56:10.665Z,41.30
2019-05-15T15:58:39.267Z,40.70
2019-05-15T16:01:09.021Z,40.90
2019-05-15T16:03:38.170Z,41.30
2019-05-15T16:06:07.173Z,41.70
2019-05-15T16:08:51.203Z,40.60
2019-05-15T16:11:08.267Z,40.90
2019-05-15T16:13:38.640Z,41.20
2019-05-15T16:16:08.658Z,42.30
2019-05-15T16:18:38.373Z,42.10
2019-05-15T16:21:08.201Z,42.80
2019-05-15T16:23:38.544Z,42.90
2019-05-15T16:26:09.238Z,42.10
2019-05-15T16:28:38.930Z,42.80
2019-05-15T16:31:08.303Z,42.40
2019-05-15T16:33:38.993Z,42.50
2019-05-15T16:36:08.868Z,43.20
2019-05-15T16:38:38.921Z,42.50
2019-05-15T16:41:08.955Z,43.70
2019-05-15T16:43:38.315Z,43.40
2019-05-15T16:46:09.162Z,42.90
2019-05-15T16:48:39.011Z,43.70
2019-05-15T16:51:09.658Z,44.00
2019-05-15T16:53:38.962Z,44.40
2019-05-15T16:56:08.205Z,43.20
2019-05-15T16:58:38.541Z,43.10
2019-05-15T17:01:07.727Z,43.30
2019-05-15T17:03:38.087Z,43.90
2019-05-15T17:06:09.256Z,44.10
2019-05-15T17:08:38.105Z,44.00
2019-05-15T17:11:08.107Z,44.20
2019-05-15T17:13:39.459Z,43.90
2019-05-15T17:16:08.030Z,44.10
2019-05-15T17:18:38.129Z,44.90
2019-05-15T17:21:09.947Z,44.20
2019-05-15T17:23:38.641Z,44.20
2019-05-15T17:26:08.864Z,43.90
2019-05-15T17:28:38.324Z,44.30
2019-05-15T17:31:09.224Z,44.00
2019-05-15T17:33:38.443Z,44.90
2019-05-15T17:36:07.449Z,44.00
2019-05-15T17:38:38.077Z,44.30
2019-05-15T17:41:08.329Z,44.90
2019-05-15T17:43:37.899Z,44.90
2019-05-15T17:46:08.914Z,45.00
2019-05-15T17:48:38.975Z,44.60
2019-05-15T17:51:09.143Z,44.30
2019-05-15T17:53:38.482Z,44.50
2019-05-15T17:56:07.837Z,45.00
2019-05-15T17:58:38.124Z,45.50
2019-05-15T18:01:08.816Z,45.50
2019-05-15T18:03:39.239Z,45.50
2019-05-15T18:06:08.518Z,45.30
2019-05-15T18:08:39.036Z,45.50
2019-05-15T18:11:08.301Z,45.60
2019-05-15T18:13:43.035Z,45.90
2019-05-15T18:16:13.810Z,45.60
2019-05-15T18:18:43.026Z,45.80
2019-05-15T18:21:12.021Z,46.90
2019-05-15T18:23:41.231Z,45.90
2019-05-15T18:26:10.249Z,45.90
2019-05-15T18:28:39.396Z,46.90
2019-05-15T18:31:08.953Z,46.10
2019-05-15T18:33:39.819Z,46.70
2019-05-15T18:36:09.057Z,47.10
2019-05-15T18:38:38.862Z,46.30
2019-05-15T18:41:09.076Z,46.90
2019-05-15T18:43:38.577Z,46.50
2019-05-15T18:46:08.991Z,46.70
2019-05-15T18:48:38.169Z,46.80
2019-05-15T18:51:08.065Z,48.10
2019-05-15T18:53:38.830Z,47.40
2019-05-15T18:56:08.967Z,47.70
2019-05-15T18:58:38.798Z,48.20
2019-05-15T19:01:09.385Z,48.80
2019-05-15T19:03:38.679Z,48.70
2019-05-15T19:06:08.884Z,48.10
2019-05-15T19:08:38.744Z,48.00
2019-05-15T19:11:08.324Z,48.50
2019-05-15T19:13:41.998Z,48.50
2019-05-15T19:16:11.030Z,49.80
2019-05-15T19:18:40.305Z,50.80
2019-05-15T19:21:10.551Z,50.70
2019-05-15T19:23:40.433Z,51.30
2019-05-15T19:26:11.755Z,51.00
2019-05-15T19:28:42.889Z,50.30
2019-05-15T19:31:29.792Z,50.20
2019-05-15T19:33:56.324Z,50.40
2019-05-15T19:36:27.710Z,49.70
2019-05-15T19:38:56.885Z,50.30
2019-05-15T19:41:26.275Z,51.00
2019-05-15T19:43:55.381Z,51.20
2019-05-15T19:46:24.883Z,51.00
2019-05-15T19:48:54.236Z,51.00
2019-05-15T19:51:23.175Z,50.70
2019-05-15T19:53:52.730Z,50.40
2019-05-15T19:56:21.741Z,49.60
2019-05-15T19:58:50.784Z,49.60
2019-05-15T20:01:20.565Z,49.40
2019-05-15T20:03:53.069Z,49.50
2019-05-15T20:06:22.954Z,49.30
2019-05-15T20:08:52.447Z,49.80
2019-05-15T20:11:21.490Z,49.60
2019-05-15T20:13:51.513Z,49.80
2019-05-15T20:16:21.391Z,49.90
2019-05-15T20:18:50.553Z,49.90
2019-05-15T20:21:19.567Z,49.70
2019-05-15T20:23:49.220Z,49.60
2019-05-15T20:26:18.490Z,49.30
2019-05-15T20:28:48.381Z,49.40
2019-05-15T20:31:18.718Z,49.40
2019-05-15T20:33:52.124Z,49.20
2019-05-15T20:36:19.125Z,48.80
2019-05-15T20:38:48.480Z,48.90
2019-05-15T20:41:18.686Z,49.00
2019-05-15T20:43:49.153Z,48.70
2019-05-15T20:46:19.317Z,49.10
2019-05-15T20:48:48.826Z,48.90
2019-05-15T20:51:18.587Z,48.60
2019-05-15T20:53:48.598Z,48.50
2019-05-15T20:56:17.902Z,48.50
2019-05-15T20:58:47.802Z,48.80
2019-05-15T21:01:18.274Z,48.80
2019-05-15T21:03:50.359Z,48.80
2019-05-15T21:06:18.524Z,48.50
2019-05-15T21:08:48.811Z,48.60
2019-05-15T21:11:18.155Z,48.80
2019-05-15T21:13:49.183Z,49.00
2019-05-15T21:16:18.863Z,49.00
2019-05-15T21:18:48.125Z,49.30
2019-05-15T21:21:19.098Z,49.30
2019-05-15T21:23:49.146Z,49.50
2019-05-15T21:26:18.853Z,49.70
2019-05-15T21:28:48.378Z,50.00
2019-05-15T21:31:21.721Z,49.60
2019-05-15T21:33:50.318Z,49.90
2019-05-15T21:36:19.551Z,50.00
2019-05-15T21:38:48.963Z,49.60
2019-05-15T21:41:18.805Z,50.10
2019-05-15T21:43:48.236Z,49.80
2019-05-15T21:46:18.962Z,49.60
2019-05-15T21:48:48.691Z,50.30
2019-05-15T21:51:18.643Z,50.10
2019-05-15T21:53:47.974Z,50.50
2019-05-15T21:56:18.825Z,50.90
2019-05-15T21:58:48.317Z,51.20
2019-05-15T22:01:19.673Z,51.50
2019-05-15T22:03:48.521Z,51.50
2019-05-15T22:06:18.571Z,51.70
2019-05-15T22:08:48.618Z,51.80
2019-05-15T22:11:18.835Z,52.10
2019-05-15T22:13:48.854Z,52.20
2019-05-15T22:16:19.388Z,52.80
2019-05-15T22:18:48.409Z,52.20
2019-05-15T22:21:18.601Z,52.90
2019-05-15T22:23:47.856Z,52.80
2019-05-15T22:26:18.527Z,52.50
2019-05-15T22:28:48.953Z,53.00
2019-05-15T22:31:18.163Z,53.40
2019-05-15T22:33:47.967Z,53.40
2019-05-15T22:36:18.822Z,53.60
2019-05-15T22:38:48.287Z,53.40
2019-05-15T22:41:19.226Z,53.70
2019-05-15T22:43:48.592Z,55.10
2019-05-15T22:46:18.645Z,55.70
2019-05-15T22:48:48.570Z,55.60
2019-05-15T22:51:18.525Z,55.90
2019-05-15T22:53:48.813Z,55.80
2019-05-15T22:56:18.290Z,56.20
2019-05-15T22:58:48.023Z,56.30
2019-05-15T23:01:18.782Z,56.90
2019-05-15T23:03:48.048Z,57.00
2019-05-15T23:06:17.897Z,57.30
2019-05-15T23:08:48.943Z,57.10
2019-05-15T23:11:18.435Z,57.20
2019-05-15T23:13:48.320Z,57.60
2019-05-15T23:16:18.376Z,56.90
2019-05-15T23:18:48.482Z,57.50
2019-05-15T23:21:18.474Z,57.10
2019-05-15T23:23:48.772Z,57.90
2019-05-15T23:26:18.133Z,57.50
2019-05-15T23:28:48.110Z,59.10
2019-05-15T23:31:18.834Z,58.10
2019-05-15T23:33:48.300Z,59.60
2019-05-15T23:36:18.035Z,59.50
2019-05-15T23:38:48.068Z,59.00
2019-05-15T23:41:18.902Z,60.30
2019-05-15T23:43:48.414Z,61.10
2019-05-15T23:46:18.403Z,61.40
2019-05-15T23:48:48.520Z,62.30
2019-05-15T23:51:19.022Z,61.60
2019-05-15T23:53:48.496Z,62.00
2019-05-15T23:56:19.051Z,60.90
2019-05-15T23:58:48.199Z,61.40
